createdAt,value
2018-06-08T00:00:31.501Z,15.90
2018-06-08T00:05:28.449Z,15.27
2018-06-08T00:10:25.247Z,16.83
2018-06-08T00:15:22.030Z,14.67
2018-06-08T00:20:18.825Z,15.07
2018-06-08T00:25:15.663Z,16.82
2018-06-08T00:30:12.485Z,15.13
2018-06-08T00:35:09.296Z,14.70
2018-06-08T00:40:06.278Z,17.07
2018-06-08T00:45:03.063Z,15.00
2018-06-08T00:49:59.857Z,15.27
2018-06-08T00:54:56.612Z,15.33
2018-06-08T00:59:53.384Z,17.87
2018-06-08T01:04:50.193Z,15.00
2018-06-08T01:09:46.939Z,15.33
2018-06-08T01:14:43.692Z,15.17
2018-06-08T01:19:40.659Z,15.70
2018-06-08T01:24:37.459Z,18.70
2018-06-08T01:29:34.281Z,15.43
2018-06-08T01:34:31.103Z,16.33
2018-06-08T01:39:27.940Z,15.90
2018-06-08T01:44:24.734Z,16.77
2018-06-08T01:49:21.493Z,15.63
2018-06-08T01:54:18.260Z,17.40
2018-06-08T01:59:15.054Z,15.27
2018-06-08T02:04:11.880Z,16.30
2018-06-08T02:09:08.661Z,16.00
2018-06-08T02:14:05.435Z,19.43
2018-06-08T02:19:02.170Z,16.70
2018-06-08T02:23:59.139Z,15.47
2018-06-08T02:28:56.000Z,17.23
2018-06-08T02:33:52.743Z,17.63
2018-06-08T02:38:49.555Z,16.93
2018-06-08T02:43:46.295Z,16.27
2018-06-08T02:48:43.047Z,17.30
2018-06-08T02:53:39.907Z,16.70
2018-06-08T02:58:36.743Z,18.23
2018-06-08T03:03:33.484Z,17.97
2018-06-08T03:08:30.203Z,18.73
2018-06-08T03:13:26.922Z,18.90
2018-06-08T03:18:23.656Z,19.53
2018-06-08T03:23:20.483Z,19.83
2018-06-08T03:28:17.278Z,19.20
2018-06-08T03:33:13.980Z,17.47
2018-06-08T03:38:10.799Z,18.40
2018-06-08T03:43:07.611Z,18.97
2018-06-08T03:48:04.560Z,17.50
2018-06-08T03:53:01.345Z,19.43
2018-06-08T03:57:58.148Z,18.73
2018-06-08T04:02:54.909Z,22.20
2018-06-08T04:07:51.658Z,21.43
2018-06-08T04:12:48.533Z,19.27
2018-06-08T04:17:45.479Z,17.97
2018-06-08T04:22:42.255Z,17.03
2018-06-08T04:27:39.124Z,17.73
2018-06-08T04:32:35.978Z,17.10
2018-06-08T04:37:32.826Z,18.87
2018-06-08T04:42:29.643Z,21.20
2018-06-08T04:47:26.451Z,19.90
2018-06-08T04:52:23.261Z,20.90
2018-06-08T04:57:20.040Z,19.57
2018-06-08T05:02:16.867Z,19.60
2018-06-08T05:07:13.671Z,18.60
2018-06-08T05:12:10.395Z,19.37
2018-06-08T05:17:07.352Z,19.65
2018-06-08T05:22:04.188Z,19.47
2018-06-08T05:27:00.990Z,21.73
2018-06-08T05:31:57.783Z,21.93
2018-06-08T05:36:54.522Z,23.40
2018-06-08T05:41:51.280Z,23.42
2018-06-08T05:46:48.044Z,23.13
2018-06-08T05:51:44.851Z,24.60
2018-06-08T05:56:41.669Z,22.90
2018-06-08T06:01:38.474Z,21.42
2018-06-08T06:06:35.335Z,21.10
2018-06-08T06:11:32.104Z,30.68
2018-06-08T06:16:28.901Z,23.30
2018-06-08T06:21:25.676Z,22.13
2018-06-08T06:26:22.481Z,20.72
2018-06-08T06:31:19.300Z,22.82
2018-06-08T06:36:16.144Z,20.97
2018-06-08T06:41:12.950Z,20.50
2018-06-08T06:46:09.693Z,21.52
2018-06-08T06:51:06.438Z,25.08
2018-06-08T06:56:03.235Z,19.30
2018-06-08T07:00:59.967Z,20.10
2018-06-08T07:05:56.811Z,23.85
2018-06-08T07:10:53.588Z,25.68
2018-06-08T07:15:50.345Z,22.67
2018-06-08T07:20:47.128Z,19.30
2018-06-08T07:25:44.076Z,19.55
2018-06-08T07:30:40.880Z,18.37
2018-06-08T07:35:37.781Z,17.32
2018-06-08T07:40:34.675Z,18.15
2018-06-08T07:45:31.487Z,16.85
2018-06-08T07:50:28.355Z,16.77
2018-06-08T07:55:25.127Z,19.20
2018-06-08T08:00:21.955Z,16.42
2018-06-08T08:05:18.738Z,15.65
2018-06-08T08:10:15.656Z,16.07
2018-06-08T08:15:12.405Z,15.63
2018-06-08T08:20:09.232Z,18.92
2018-06-08T08:25:06.036Z,16.50
2018-06-08T08:30:02.849Z,13.90
2018-06-08T08:34:59.630Z,12.20
2018-06-08T08:39:56.423Z,12.78
2018-06-08T08:44:53.223Z,11.38
2018-06-08T08:49:49.984Z,15.32
2018-06-08T08:54:46.764Z,9.50
2018-06-08T08:59:43.610Z,8.28
2018-06-08T09:04:40.357Z,7.40
2018-06-08T09:09:37.085Z,7.10
2018-06-08T09:14:33.987Z,10.98
2018-06-08T09:19:30.812Z,7.12
2018-06-08T09:24:27.615Z,8.35
2018-06-08T09:29:24.420Z,7.60
2018-06-08T09:34:21.243Z,9.78
2018-06-08T09:39:18.177Z,8.38
2018-06-08T09:44:15.017Z,7.85
2018-06-08T09:49:11.821Z,8.73
2018-06-08T09:54:08.623Z,8.13
2018-06-08T09:59:05.456Z,19.77
2018-06-08T10:04:02.227Z,7.42
2018-06-08T10:08:59.075Z,6.42
2018-06-08T10:13:55.909Z,7.37
2018-06-08T10:18:52.787Z,8.15
2018-06-08T10:23:49.600Z,5.62
2018-06-08T10:28:46.445Z,6.45
2018-06-08T10:33:43.182Z,5.08
2018-06-08T10:38:40.011Z,5.55
2018-06-08T10:43:36.864Z,8.60
2018-06-08T10:48:33.753Z,5.15
2018-06-08T10:53:30.623Z,4.85
2018-06-08T10:58:27.465Z,4.95
2018-06-08T11:03:24.271Z,5.42
2018-06-08T11:08:21.179Z,4.70
2018-06-08T11:13:17.938Z,5.83
2018-06-08T11:18:14.804Z,10.25
2018-06-08T11:23:11.645Z,4.70
2018-06-08T11:28:08.408Z,6.05
2018-06-08T11:33:05.227Z,6.75
2018-06-08T11:38:02.051Z,8.65
2018-06-08T11:42:58.908Z,5.47
2018-06-08T11:47:55.661Z,6.00
2018-06-08T11:52:52.451Z,5.90
2018-06-08T11:57:49.262Z,4.60
2018-06-08T12:02:46.089Z,7.92
2018-06-08T12:07:42.891Z,7.12
2018-06-08T12:12:39.771Z,4.45
2018-06-08T12:17:36.501Z,4.40
2018-06-08T12:22:33.293Z,4.62
2018-06-08T12:27:30.079Z,5.55
2018-06-08T12:32:26.857Z,4.75
2018-06-08T12:37:23.641Z,5.05
2018-06-08T12:42:20.498Z,4.70
2018-06-08T12:47:17.374Z,6.75
2018-06-08T12:52:14.208Z,5.53
2018-06-08T12:57:11.001Z,5.35
2018-06-08T13:02:07.841Z,5.97
2018-06-08T13:07:04.610Z,6.47
2018-06-08T13:12:01.368Z,6.37
2018-06-08T13:16:58.240Z,3.83
2018-06-08T13:21:55.035Z,4.85
2018-06-08T13:26:51.898Z,5.40
2018-06-08T13:31:48.642Z,4.20
2018-06-08T13:36:45.585Z,4.08
2018-06-08T13:41:42.374Z,12.35
2018-06-08T13:46:45.316Z,4.67
2018-06-08T13:51:42.117Z,4.67
2018-06-08T13:56:38.955Z,6.03
2018-06-08T14:01:35.704Z,4.30
2018-06-08T14:06:32.461Z,3.95
2018-06-08T14:11:29.253Z,4.33
2018-06-08T14:16:26.086Z,4.53
2018-06-08T14:21:22.877Z,4.03
2018-06-08T14:26:19.703Z,5.08
2018-06-08T14:31:16.507Z,4.20
2018-06-08T14:36:13.422Z,5.95
2018-06-08T14:41:10.250Z,4.40
2018-06-08T14:46:07.020Z,5.12
2018-06-08T14:51:03.782Z,4.35
2018-06-08T14:56:00.587Z,4.17
2018-06-08T15:00:57.384Z,6.65
2018-06-08T15:05:54.277Z,5.22
2018-06-08T15:10:51.029Z,6.47
2018-06-08T15:15:47.808Z,6.97
2018-06-08T15:20:44.566Z,8.40
2018-06-08T15:25:41.415Z,6.05
2018-06-08T15:30:38.226Z,6.53
2018-06-08T15:35:34.981Z,4.58
2018-06-08T15:40:31.911Z,4.80
2018-06-08T15:45:28.704Z,5.12
2018-06-08T15:50:25.501Z,5.65
2018-06-08T15:55:22.344Z,7.33
2018-06-08T16:00:19.103Z,6.35
2018-06-08T16:05:16.175Z,5.95
2018-06-08T16:10:13.009Z,6.50
2018-06-08T16:15:09.854Z,7.25
2018-06-08T16:20:06.632Z,6.70
2018-06-08T16:25:03.490Z,7.03
2018-06-08T16:30:00.432Z,11.25
2018-06-08T16:34:57.201Z,6.55
2018-06-08T16:39:54.128Z,5.90
2018-06-08T16:44:50.877Z,6.78
2018-06-08T16:49:47.677Z,5.20
2018-06-08T16:54:44.412Z,8.90
2018-06-08T16:59:41.169Z,7.47
2018-06-08T17:04:37.981Z,5.87
2018-06-08T17:09:34.839Z,6.15
2018-06-08T17:14:31.659Z,6.25
2018-06-08T17:19:28.403Z,7.53
2018-06-08T17:24:25.228Z,5.85
2018-06-08T17:29:22.051Z,7.33
2018-06-08T17:34:18.832Z,6.83
2018-06-08T17:39:15.594Z,8.13
2018-06-08T17:44:12.383Z,6.17
2018-06-08T17:49:17.024Z,5.00
2018-06-08T17:54:14.751Z,5.72
2018-06-08T17:59:11.524Z,9.15
2018-06-08T18:04:08.284Z,10.72
2018-06-08T18:09:06.158Z,13.25
2018-06-08T18:14:04.220Z,16.32
2018-06-08T18:19:01.048Z,12.58
2018-06-08T18:23:57.843Z,14.13
2018-06-08T18:28:54.717Z,6.80
2018-06-08T18:33:51.572Z,6.62
2018-06-08T18:38:48.368Z,6.45
2018-06-08T18:43:45.180Z,6.72
2018-06-08T18:48:41.916Z,8.58
2018-06-08T18:53:38.693Z,7.53
2018-06-08T18:58:35.593Z,9.88
2018-06-08T19:03:32.352Z,8.18
2018-06-08T19:08:29.154Z,7.58
2018-06-08T19:13:26.001Z,13.98
2018-06-08T19:18:23.025Z,11.43
2018-06-08T19:23:19.807Z,8.63
2018-06-08T19:28:16.635Z,10.82
2018-06-08T19:33:13.390Z,13.60
2018-06-08T19:38:10.147Z,8.40
2018-06-08T19:43:07.225Z,8.38
2018-06-08T19:48:04.021Z,8.50
2018-06-08T19:53:00.833Z,12.68
2018-06-08T19:57:57.688Z,9.25
2018-06-08T20:02:54.498Z,8.50
2018-06-08T20:07:51.292Z,8.40
2018-06-08T20:12:48.130Z,9.20
2018-06-08T20:17:44.885Z,9.53
2018-06-08T20:22:41.729Z,11.93
2018-06-08T20:27:38.555Z,10.48
2018-06-08T20:32:35.500Z,8.75
2018-06-08T20:37:32.349Z,9.48
2018-06-08T20:42:29.146Z,10.53
2018-06-08T20:47:26.018Z,10.18
2018-06-08T20:52:22.871Z,9.98
2018-06-08T20:57:25.184Z,11.33
2018-06-08T21:02:22.125Z,9.73
2018-06-08T21:07:18.819Z,9.63
2018-06-08T21:12:15.653Z,12.33
2018-06-08T21:17:12.740Z,11.57
2018-06-08T21:22:09.555Z,9.95
2018-06-08T21:27:06.427Z,10.15
2018-06-08T21:32:03.284Z,10.20
2018-06-08T21:37:00.109Z,11.83
2018-06-08T21:41:56.995Z,13.05
2018-06-08T21:46:53.862Z,13.40
2018-06-08T21:51:50.614Z,13.28
2018-06-08T21:56:47.473Z,10.75
2018-06-08T22:01:44.361Z,12.53
2018-06-08T22:06:41.157Z,12.03
2018-06-08T22:11:37.895Z,12.07
2018-06-08T22:16:34.689Z,11.60
2018-06-08T22:21:31.498Z,11.90
2018-06-08T22:26:28.300Z,12.20
2018-06-08T22:31:25.117Z,11.33
2018-06-08T22:36:21.886Z,13.08
2018-06-08T22:41:18.698Z,12.37
2018-06-08T22:46:15.516Z,12.93
2018-06-08T22:51:12.484Z,12.50
2018-06-08T22:56:09.290Z,12.90
2018-06-08T23:01:06.102Z,13.48
2018-06-08T23:06:02.837Z,13.35
2018-06-08T23:10:59.556Z,12.58
2018-06-08T23:15:56.425Z,17.50
2018-06-08T23:20:53.197Z,13.70
2018-06-08T23:25:50.073Z,12.40
2018-06-08T23:30:46.829Z,12.37
2018-06-08T23:35:43.575Z,13.93
2018-06-08T23:40:40.387Z,14.43
2018-06-08T23:45:37.281Z,14.80
2018-06-08T23:50:34.085Z,14.07
2018-06-08T23:55:30.870Z,13.03
